Terminal Aerodrome Forecast
Issued by NWS

Home | Current Version | Previous Version | Text Only | Print | Product List | Glossary On
Versions: 1 2 3 4 5 6 7 8 9 10 11 12
000
FTUS46 KSTO 260538
TAFSMF
TAF
KSMF 260538Z 2606/2706 32004KT P6SM FEW250
      TEMPO 2614/2618 3SM BCFG BKN002
     FM261800 16006KT P6SM SCT250
     FM262200 20010G20KT P6SM VCSH BKN050 BKN100=

USA.gov is the U.S. government's official web portal to all federal, state and local government web resources and services.